Time;durP1;ratioP1;P1;durP2;ratioP2;P2;SDS_P1;SDS_P2;PMS_P1;PMS_P2;Temp;Humidity;BMP_temperature;BMP_pressure;BME280_temperature;BME280_humidity;BME280_pressure;Samples;Min_cycle;Max_cycle;Signal;HPM_P1;HPM_P2
2023/07/22 00:01:59;;;;;;;;;;;23.20;99.90;;;;;;5094887;28;20036;-63
2023/07/22 00:04:25;;;;;;;;;;;23.20;99.90;;;;;;5095192;28;19982;-63
2023/07/22 00:06:51;;;;;;;;;;;23.10;99.90;;;;;;5095051;28;20391;-62
2023/07/22 00:09:17;;;;;;;;;;;23.00;99.90;;;;;;5095378;28;20016;-63
2023/07/22 00:11:42;;;;;;;;;;;23.00;99.90;;;;;;5094961;28;19985;-62
2023/07/22 00:14:09;;;;;;;;;;;23.00;99.90;;;;;;5095055;28;19981;-63
2023/07/22 00:16:34;;;;;;;;;;;23.00;99.90;;;;;;5095049;28;19981;-62
2023/07/22 00:19:00;;;;;;;;;;;23.00;99.90;;;;;;5094963;28;19988;-63
2023/07/22 00:21:26;;;;;;;;;;;23.10;99.90;;;;;;5095059;28;19995;-63
2023/07/22 00:23:51;;;;;;;;;;;23.10;99.90;;;;;;5094764;28;20443;-64
2023/07/22 00:26:17;;;;;;;;;;;23.10;99.90;;;;;;5094654;28;20073;-64
2023/07/22 00:28:43;;;;;;;;;;;23.20;99.90;;;;;;5094701;28;20012;-64
2023/07/22 00:31:09;;;;;;;;;;;23.20;99.90;;;;;;5094880;28;20380;-63
2023/07/22 00:33:35;;;;;;;;;;;23.10;99.90;;;;;;5094548;28;20027;-64
2023/07/22 00:36:00;;;;;;;;;;;23.10;99.90;;;;;;5094636;28;20103;-64
2023/07/22 00:38:27;;;;;;;;;;;23.20;99.90;;;;;;5094419;28;19992;-63
2023/07/22 00:40:53;;;;;;;;;;;23.20;99.90;;;;;;5094424;28;19988;-63
2023/07/22 00:43:19;;;;;;;;;;;23.20;99.90;;;;;;5094431;28;20068;-62
2023/07/22 00:45:44;;;;;;;;;;;23.20;99.90;;;;;;5093931;28;20112;-64
2023/07/22 00:48:10;;;;;;;;;;;23.20;99.90;;;;;;5094271;28;19985;-64
2023/07/22 00:50:36;;;;;;;;;;;23.20;99.90;;;;;;5094235;28;20052;-64
2023/07/22 00:53:01;;;;;;;;;;;23.20;99.90;;;;;;5094348;28;20462;-62
2023/07/22 00:55:27;;;;;;;;;;;23.20;99.90;;;;;;5094182;28;20351;-62
2023/07/22 00:57:54;;;;;;;;;;;23.20;99.90;;;;;;5093996;28;20012;-63
2023/07/22 01:00:20;;;;;;;;;;;23.20;99.90;;;;;;5093944;28;19981;-64
2023/07/22 01:02:45;;;;;;;;;;;23.10;99.90;;;;;;5094359;28;19985;-64
2023/07/22 01:05:12;;;;;;;;;;;23.10;99.90;;;;;;5094019;28;20428;-64
2023/07/22 01:07:40;;;;;;;;;;;23.20;99.90;;;;;;5093952;28;20499;-64
2023/07/22 01:10:06;;;;;;;;;;;23.20;99.90;;;;;;5093971;28;20093;-63
2023/07/22 01:12:32;;;;;;;;;;;23.10;99.90;;;;;;5093933;28;20375;-63
2023/07/22 01:14:57;;;;;;;;;;;23.10;99.90;;;;;;5093804;28;20362;-64
2023/07/22 01:17:23;;;;;;;;;;;23.10;99.90;;;;;;5093945;28;20019;-62
2023/07/22 01:19:49;;;;;;;;;;;22.90;99.90;;;;;;5093775;28;20350;-62
2023/07/22 01:22:14;;;;;;;;;;;22.90;99.90;;;;;;5093982;28;19981;-64
2023/07/22 01:24:41;;;;;;;;;;;23.00;99.90;;;;;;5093790;28;19985;-63
2023/07/22 01:27:09;;;;;;;;;;;22.90;99.90;;;;;;5093775;28;19981;-65
2023/07/22 01:29:35;;;;;;;;;;;22.90;99.90;;;;;;5093560;28;20409;-63
2023/07/22 01:32:01;;;;;;;;;;;23.00;99.90;;;;;;5093819;28;19981;-64
2023/07/22 01:34:26;;;;;;;;;;;22.90;99.90;;;;;;5093624;28;19985;-63
2023/07/22 01:36:53;;;;;;;;;;;23.00;99.90;;;;;;5093670;28;20080;-64
2023/07/22 01:39:19;;;;;;;;;;;23.00;99.90;;;;;;5093689;28;19985;-63
2023/07/22 01:41:45;;;;;;;;;;;23.10;99.90;;;;;;5093627;28;20531;-63
2023/07/22 01:44:11;;;;;;;;;;;23.10;99.90;;;;;;5093404;28;19981;-63
2023/07/22 01:46:36;;;;;;;;;;;23.00;99.90;;;;;;5093498;28;20070;-64
2023/07/22 01:49:03;;;;;;;;;;;23.10;99.90;;;;;;5093602;28;20362;-63
2023/07/22 01:51:29;;;;;;;;;;;23.20;99.90;;;;;;5093504;28;20021;-64
2023/07/22 01:53:56;;;;;;;;;;;23.20;99.90;;;;;;5093771;28;20040;-63
2023/07/22 01:56:22;;;;;;;;;;;23.20;99.90;;;;;;5093674;28;20419;-64
2023/07/22 01:58:48;;;;;;;;;;;23.10;99.90;;;;;;5093212;28;20048;-62
2023/07/22 02:01:16;;;;;;;;;;;23.10;99.90;;;;;;5093452;28;19981;-62
2023/07/22 02:03:42;;;;;;;;;;;23.10;99.90;;;;;;5093562;28;20079;-63
2023/07/22 02:06:08;;;;;;;;;;;23.00;99.90;;;;;;5093409;28;20024;-62
2023/07/22 02:08:33;;;;;;;;;;;23.10;99.90;;;;;;5093432;28;20084;-63
2023/07/22 02:11:06;;;;;;;;;;;22.90;99.90;;;;;;5096176;28;19991;-62
2023/07/22 02:13:32;;;;;;;;;;;23.00;99.90;;;;;;5097030;28;20076;-63
2023/07/22 02:15:58;;;;;;;;;;;23.00;99.90;;;;;;5097264;28;20034;-64
2023/07/22 02:18:24;;;;;;;;;;;23.00;99.90;;;;;;5097501;28;19989;-63
2023/07/22 02:20:50;;;;;;;;;;;23.00;99.90;;;;;;5097051;28;19981;-63
2023/07/22 02:23:15;;;;;;;;;;;22.80;99.90;;;;;;5097071;28;19989;-64
2023/07/22 02:25:41;;;;;;;;;;;22.70;99.90;;;;;;5097045;28;19988;-63
2023/07/22 02:28:06;;;;;;;;;;;22.80;99.90;;;;;;5096794;28;20028;-63
2023/07/22 02:30:38;;;;;;;;;;;22.80;99.90;;;;;;5096875;28;20008;-62
2023/07/22 02:33:05;;;;;;;;;;;22.80;99.90;;;;;;5097024;28;20451;-62
2023/07/22 02:35:31;;;;;;;;;;;22.70;99.90;;;;;;5096806;28;20003;-63
2023/07/22 02:37:56;;;;;;;;;;;22.40;99.90;;;;;;5096815;28;20431;-63
2023/07/22 02:40:22;;;;;;;;;;;22.10;99.90;;;;;;5096822;28;19981;-63
2023/07/22 02:42:47;;;;;;;;;;;21.50;99.90;;;;;;5096629;28;19981;-64
2023/07/22 02:45:13;;;;;;;;;;;21.50;99.90;;;;;;5096443;28;20040;-63
2023/07/22 02:47:39;;;;;;;;;;;21.60;99.90;;;;;;5096904;28;20436;-64
2023/07/22 02:50:06;;;;;;;;;;;21.80;99.90;;;;;;5096527;28;20363;-63
2023/07/22 02:52:32;;;;;;;;;;;21.90;99.90;;;;;;5096404;28;19985;-64
2023/07/22 02:55:07;;;;;;;;;;;22.10;99.90;;;;;;5096607;28;20085;-62
2023/07/22 02:57:33;;;;;;;;;;;22.20;99.90;;;;;;5096277;28;20004;-62
2023/07/22 02:59:59;;;;;;;;;;;22.30;99.90;;;;;;5096320;28;20428;-63
2023/07/22 03:02:24;;;;;;;;;;;22.30;99.90;;;;;;5096452;28;20004;-63
2023/07/22 03:04:50;;;;;;;;;;;22.30;99.90;;;;;;5096401;28;19981;-62
2023/07/22 03:07:15;;;;;;;;;;;22.20;99.90;;;;;;5096442;28;20427;-63
2023/07/22 03:09:41;;;;;;;;;;;22.20;99.90;;;;;;5096176;28;20479;-62
2023/07/22 03:12:07;;;;;;;;;;;22.10;99.90;;;;;;5096012;28;19981;-63
2023/07/22 03:14:36;;;;;;;;;;;22.20;99.90;;;;;;5096058;28;20034;-62
2023/07/22 03:17:03;;;;;;;;;;;22.10;99.90;;;;;;5096195;28;19981;-64
2023/07/22 03:19:28;;;;;;;;;;;22.10;99.90;;;;;;5096314;28;20451;-63
2023/07/22 03:21:54;;;;;;;;;;;22.20;99.90;;;;;;5094953;28;20182;-63
2023/07/22 03:24:20;;;;;;;;;;;22.30;99.90;;;;;;5095941;28;19981;-62
2023/07/22 03:26:45;;;;;;;;;;;22.30;99.90;;;;;;5095727;28;20379;-63
2023/07/22 03:29:11;;;;;;;;;;;22.30;99.90;;;;;;5095657;28;20007;-64
2023/07/22 03:31:36;;;;;;;;;;;22.40;99.90;;;;;;5095804;28;19985;-62
2023/07/22 03:34:02;;;;;;;;;;;22.30;99.90;;;;;;5095927;28;19988;-62
2023/07/22 03:36:28;;;;;;;;;;;22.30;99.90;;;;;;5095626;28;19982;-63
2023/07/22 03:38:53;;;;;;;;;;;22.30;99.90;;;;;;5095633;28;19988;-63
2023/07/22 03:41:19;;;;;;;;;;;22.30;99.90;;;;;;5095456;28;19981;-64
2023/07/22 03:43:44;;;;;;;;;;;22.30;99.90;;;;;;5095549;28;19988;-62
2023/07/22 03:46:10;;;;;;;;;;;22.30;99.90;;;;;;5095218;28;20068;-63
2023/07/22 03:48:36;;;;;;;;;;;22.30;99.90;;;;;;5095498;28;20022;-63
2023/07/22 03:51:01;;;;;;;;;;;22.30;99.90;;;;;;5095467;28;20333;-63
2023/07/22 03:53:27;;;;;;;;;;;22.40;99.90;;;;;;5095190;28;20075;-64
2023/07/22 03:55:52;;;;;;;;;;;22.40;99.90;;;;;;5095182;28;20031;-64
2023/07/22 03:58:18;;;;;;;;;;;22.40;99.90;;;;;;5095225;28;20367;-63
2023/07/22 04:00:47;;;;;;;;;;;22.50;99.90;;;;;;5095264;28;20009;-62
2023/07/22 04:03:12;;;;;;;;;;;22.50;99.90;;;;;;5095212;28;20016;-64
2023/07/22 04:05:38;;;;;;;;;;;22.40;99.90;;;;;;5095224;28;19992;-63
2023/07/22 04:08:03;;;;;;;;;;;22.40;99.90;;;;;;5094992;28;19981;-62
2023/07/22 04:10:29;;;;;;;;;;;22.50;99.90;;;;;;5094904;28;20005;-62
2023/07/22 04:12:54;;;;;;;;;;;22.50;99.90;;;;;;5095070;28;20020;-63
2023/07/22 04:15:20;;;;;;;;;;;22.50;99.90;;;;;;5095048;28;20018;-64
2023/07/22 04:17:46;;;;;;;;;;;22.40;99.90;;;;;;5094858;28;19985;-64
2023/07/22 04:20:12;;;;;;;;;;;22.40;99.90;;;;;;5095150;28;19981;-63
2023/07/22 04:22:37;;;;;;;;;;;22.50;99.90;;;;;;5094834;28;19989;-63
2023/07/22 04:25:04;;;;;;;;;;;22.40;99.90;;;;;;5094506;28;20083;-64
2023/07/22 04:27:29;;;;;;;;;;;22.40;99.90;;;;;;5094703;28;20497;-64
2023/07/22 04:29:55;;;;;;;;;;;22.40;99.90;;;;;;5094837;28;20009;-65
2023/07/22 04:32:21;;;;;;;;;;;22.30;99.90;;;;;;5094332;28;19981;-62
2023/07/22 04:34:46;;;;;;;;;;;22.30;99.90;;;;;;5094855;28;20016;-63
2023/07/22 04:37:13;;;;;;;;;;;22.30;99.90;;;;;;5094534;28;19982;-64
2023/07/22 04:39:38;;;;;;;;;;;22.40;99.90;;;;;;5094310;28;19989;-64
2023/07/22 04:42:04;;;;;;;;;;;22.50;99.90;;;;;;5094387;28;19985;-63
2023/07/22 04:44:30;;;;;;;;;;;22.60;99.90;;;;;;5094159;28;19981;-63
2023/07/22 04:46:55;;;;;;;;;;;22.70;99.90;;;;;;5094412;28;20070;-62
2023/07/22 04:49:21;;;;;;;;;;;22.80;99.90;;;;;;5094166;28;20004;-64
2023/07/22 04:51:47;;;;;;;;;;;22.80;99.90;;;;;;5094404;28;20446;-64
2023/07/22 04:54:13;;;;;;;;;;;22.80;99.90;;;;;;5094063;28;20062;-62
2023/07/22 04:56:39;;;;;;;;;;;22.90;99.90;;;;;;5094087;28;19984;-64
2023/07/22 04:59:04;;;;;;;;;;;22.90;99.90;;;;;;5094212;28;20458;-62
2023/07/22 05:01:30;;;;;;;;;;;22.90;99.90;;;;;;5094205;28;20027;-63
2023/07/22 05:03:55;;;;;;;;;;;23.00;99.90;;;;;;5094079;28;19985;-62
2023/07/22 05:06:21;;;;;;;;;;;23.10;99.90;;;;;;5094219;28;20073;-63
2023/07/22 05:08:47;;;;;;;;;;;23.10;99.90;;;;;;5094051;28;20013;-63
2023/07/22 05:11:12;;;;;;;;;;;23.10;99.90;;;;;;5093985;28;20420;-64
2023/07/22 05:13:38;;;;;;;;;;;23.20;99.90;;;;;;5093885;28;20403;-62
2023/07/22 05:16:03;;;;;;;;;;;23.10;99.90;;;;;;5093972;28;19981;-63
2023/07/22 05:18:29;;;;;;;;;;;23.10;99.90;;;;;;5093973;28;20030;-62
2023/07/22 05:20:54;;;;;;;;;;;23.10;99.90;;;;;;5093810;28;20435;-63
2023/07/22 05:23:20;;;;;;;;;;;23.00;99.90;;;;;;5093719;28;20382;-63
2023/07/22 05:25:52;;;;;;;;;;;23.00;99.90;;;;;;5093873;28;20444;-63
2023/07/22 05:28:17;;;;;;;;;;;23.10;99.90;;;;;;5093743;28;20348;-63
2023/07/22 05:30:43;;;;;;;;;;;23.20;99.90;;;;;;5093772;28;20005;-64
2023/07/22 05:33:08;;;;;;;;;;;23.30;99.90;;;;;;5093761;28;20449;-63
2023/07/22 05:35:34;;;;;;;;;;;23.40;99.90;;;;;;5093530;28;19985;-62
2023/07/22 05:38:02;;;;;;;;;;;23.50;99.90;;;;;;5093802;28;19988;-64
2023/07/22 05:40:28;;;;;;;;;;;23.50;99.90;;;;;;5093729;28;19982;-63
2023/07/22 05:42:53;;;;;;;;;;;23.60;99.90;;;;;;5093590;28;19988;-63
2023/07/22 05:45:19;;;;;;;;;;;23.80;99.90;;;;;;5095273;28;20441;-62
2023/07/22 05:47:44;;;;;;;;;;;23.80;99.90;;;;;;5097780;28;19985;-64
2023/07/22 05:50:10;;;;;;;;;;;23.80;99.90;;;;;;5097749;28;20005;-64
2023/07/22 05:52:35;;;;;;;;;;;23.80;99.90;;;;;;5098039;28;19991;-63
2023/07/22 05:55:01;;;;;;;;;;;24.00;99.90;;;;;;5097642;28;20324;-63
2023/07/22 05:57:26;;;;;;;;;;;24.00;99.90;;;;;;5097655;28;20095;-63
2023/07/22 05:59:52;;;;;;;;;;;24.20;99.90;;;;;;5097416;28;20068;-63
2023/07/22 06:02:18;;;;;;;;;;;24.30;99.90;;;;;;5097647;28;19981;-63
2023/07/22 06:04:44;;;;;;;;;;;24.40;99.90;;;;;;5097309;28;19982;-62
2023/07/22 06:07:09;;;;;;;;;;;24.40;99.90;;;;;;5097364;28;19981;-62
2023/07/22 06:09:35;;;;;;;;;;;24.60;99.90;;;;;;5097273;28;20383;-64
2023/07/22 06:12:01;;;;;;;;;;;24.60;99.90;;;;;;5097365;28;20397;-62
2023/07/22 06:14:27;;;;;;;;;;;24.70;99.90;;;;;;5097244;28;20076;-63
2023/07/22 06:16:53;;;;;;;;;;;24.90;99.90;;;;;;5097272;28;19988;-63
2023/07/22 06:19:18;;;;;;;;;;;24.90;99.90;;;;;;5097121;28;19981;-62
2023/07/22 06:21:44;;;;;;;;;;;24.90;99.90;;;;;;5097234;28;20073;-63
2023/07/22 06:24:10;;;;;;;;;;;25.00;99.90;;;;;;5097006;28;19981;-63
2023/07/22 06:26:35;;;;;;;;;;;25.00;99.90;;;;;;5097102;28;20076;-63
2023/07/22 06:29:01;;;;;;;;;;;25.00;99.90;;;;;;5097005;28;20005;-63
2023/07/22 06:31:30;;;;;;;;;;;25.10;99.90;;;;;;5097127;28;19985;-64
2023/07/22 06:34:02;;;;;;;;;;;25.20;99.90;;;;;;5096978;28;19981;-64
2023/07/22 06:36:28;;;;;;;;;;;25.40;99.90;;;;;;5096607;28;20076;-63
2023/07/22 06:38:54;;;;;;;;;;;25.50;99.90;;;;;;5096759;28;20013;-63
2023/07/22 06:41:20;;;;;;;;;;;25.70;99.90;;;;;;5096793;28;19981;-63
2023/07/22 06:43:46;;;;;;;;;;;25.60;99.90;;;;;;5096687;28;20038;-64
2023/07/22 06:46:11;;;;;;;;;;;25.80;99.90;;;;;;5096506;28;20051;-64
2023/07/22 06:48:37;;;;;;;;;;;25.80;99.90;;;;;;5096687;28;20024;-63
2023/07/22 06:51:03;;;;;;;;;;;25.90;99.90;;;;;;5096844;28;19986;-63
2023/07/22 06:53:28;;;;;;;;;;;25.80;99.90;;;;;;5096492;28;19981;-64
2023/07/22 06:55:54;;;;;;;;;;;25.80;99.90;;;;;;5096628;28;20080;-63
2023/07/22 06:58:20;;;;;;;;;;;26.00;99.90;;;;;;5096404;28;19998;-63
2023/07/22 07:00:45;;;;;;;;;;;25.80;99.90;;;;;;5096316;28;20021;-64
2023/07/22 07:03:11;;;;;;;;;;;25.90;99.90;;;;;;5096132;28;20401;-63
2023/07/22 07:05:39;;;;;;;;;;;26.10;99.90;;;;;;5096434;28;19985;-63
2023/07/22 07:08:05;;;;;;;;;;;26.10;99.90;;;;;;5096210;28;20443;-63
2023/07/22 07:10:31;;;;;;;;;;;26.20;99.90;;;;;;5096116;28;20019;-63
2023/07/22 07:12:56;;;;;;;;;;;26.40;99.90;;;;;;5096245;28;19981;-62
2023/07/22 07:15:22;;;;;;;;;;;26.40;99.90;;;;;;5096243;28;20428;-62
2023/07/22 07:17:48;;;;;;;;;;;26.50;99.90;;;;;;5095836;28;20347;-63
2023/07/22 07:20:13;;;;;;;;;;;26.60;99.90;;;;;;5096117;28;19981;-64
2023/07/22 07:22:39;;;;;;;;;;;26.80;99.90;;;;;;5095956;28;20385;-62
2023/07/22 07:25:05;;;;;;;;;;;26.90;99.90;;;;;;5095897;28;20021;-63
2023/07/22 07:27:30;;;;;;;;;;;27.20;99.90;;;;;;5096055;28;19988;-64
2023/07/22 07:29:56;;;;;;;;;;;27.60;99.90;;;;;;5095773;28;20015;-62
2023/07/22 07:32:23;;;;;;;;;;;29.70;99.00;;;;;;5095795;28;20034;-63
2023/07/22 07:34:49;;;;;;;;;;;32.20;90.00;;;;;;5095747;28;19992;-63
2023/07/22 07:37:14;;;;;;;;;;;34.30;71.90;;;;;;5095730;28;19985;-64
2023/07/22 07:39:40;;;;;;;;;;;35.60;68.80;;;;;;5095579;28;20080;-62
2023/07/22 07:42:06;;;;;;;;;;;36.80;66.40;;;;;;5095707;28;20439;-62
2023/07/22 07:44:31;;;;;;;;;;;37.90;55.00;;;;;;5095421;28;20030;-64
2023/07/22 07:46:57;;;;;;;;;;;38.60;51.40;;;;;;5095355;28;20049;-62
2023/07/22 07:49:22;;;;;;;;;;;38.80;51.60;;;;;;5095302;28;20057;-64
2023/07/22 07:51:48;;;;;;;;;;;39.40;50.30;;;;;;5095403;28;19985;-63
2023/07/22 07:54:14;;;;;;;;;;;39.30;48.00;;;;;;5095428;28;19988;-63
2023/07/22 07:56:40;;;;;;;;;;;38.60;48.90;;;;;;5095209;28;19981;-62
2023/07/22 07:59:08;;;;;;;;;;;39.00;48.40;;;;;;5095294;28;20498;-62
2023/07/22 08:01:35;;;;;;;;;;;39.70;47.40;;;;;;5095094;28;20026;-64
2023/07/22 08:04:01;;;;;;;;;;;39.10;45.80;;;;;;5095118;28;19981;-64
2023/07/22 08:06:26;;;;;;;;;;;37.40;47.70;;;;;;5095266;28;19985;-64
2023/07/22 08:08:52;;;;;;;;;;;36.30;51.40;;;;;;5094396;28;20056;-64
2023/07/22 08:11:18;;;;;;;;;;;35.60;52.30;;;;;;5095078;28;19988;-63
2023/07/22 08:13:44;;;;;;;;;;;36.50;51.30;;;;;;5095214;28;20542;-62
2023/07/22 08:16:11;;;;;;;;;;;37.30;49.30;;;;;;5094877;28;20008;-63
2023/07/22 08:18:37;;;;;;;;;;;37.30;49.30;;;;;;5095129;28;19996;-64
2023/07/22 08:21:03;;;;;;;;;;;37.50;49.00;;;;;;5095020;28;19985;-62
2023/07/22 08:23:29;;;;;;;;;;;38.10;49.00;;;;;;5094794;28;19981;-64
2023/07/22 08:25:54;;;;;;;;;;;38.60;47.70;;;;;;5094865;28;19981;-64
2023/07/22 08:28:20;;;;;;;;;;;39.40;47.30;;;;;;5094610;28;20067;-63
2023/07/22 08:30:48;;;;;;;;;;;39.30;46.30;;;;;;5094491;28;20083;-62
2023/07/22 08:33:14;;;;;;;;;;;38.80;46.20;;;;;;5094696;28;19989;-63
2023/07/22 08:35:40;;;;;;;;;;;38.80;46.50;;;;;;5094553;28;19980;-64
2023/07/22 08:38:06;;;;;;;;;;;39.10;47.40;;;;;;5094560;28;19987;-63
2023/07/22 08:40:35;;;;;;;;;;;38.50;46.00;;;;;;5094713;28;20012;-65
2023/07/22 08:43:01;;;;;;;;;;;38.00;48.50;;;;;;5094425;28;19986;-64
2023/07/22 08:45:29;;;;;;;;;;;38.80;49.80;;;;;;5094014;28;20471;-64
2023/07/22 08:47:57;;;;;;;;;;;38.60;46.80;;;;;;5094361;28;20462;-64
2023/07/22 08:50:25;;;;;;;;;;;39.20;46.50;;;;;;5094238;28;20051;-64
2023/07/22 08:52:51;;;;;;;;;;;39.60;50.00;;;;;;5094360;28;20442;-63
2023/07/22 08:55:17;;;;;;;;;;;39.90;46.70;;;;;;5094252;28;20090;-62
2023/07/22 08:57:43;;;;;;;;;;;38.90;45.00;;;;;;5094061;28;20001;-62
2023/07/22 09:00:11;;;;;;;;;;;37.30;46.70;;;;;;5094203;28;19985;-64
2023/07/22 09:02:37;;;;;;;;;;;36.00;49.40;;;;;;5094083;28;20470;-64
2023/07/22 09:05:03;;;;;;;;;;;35.00;51.10;;;;;;5093996;28;19985;-62
2023/07/22 09:07:29;;;;;;;;;;;33.70;52.40;;;;;;5094125;28;20062;-62
2023/07/22 09:09:56;;;;;;;;;;;32.90;54.80;;;;;;5093871;28;20009;-63
2023/07/22 09:12:22;;;;;;;;;;;32.50;56.30;;;;;;5093916;28;19981;-62
2023/07/22 09:14:49;;;;;;;;;;;32.20;57.90;;;;;;5093640;28;19985;-63
2023/07/22 09:17:14;;;;;;;;;;;31.60;58.90;;;;;;5093985;28;19981;-62
2023/07/22 09:19:40;;;;;;;;;;;31.20;60.80;;;;;;5092831;28;20462;-62
2023/07/22 09:22:07;;;;;;;;;;;31.80;62.70;;;;;;5093899;28;20039;-62
2023/07/22 09:24:32;;;;;;;;;;;32.20;64.10;;;;;;5093875;28;20455;-62
2023/07/22 09:26:58;;;;;;;;;;;33.20;61.80;;;;;;5093771;28;19981;-64
2023/07/22 09:29:34;;;;;;;;;;;34.10;58.90;;;;;;5093471;28;20009;-64
2023/07/22 09:31:59;;;;;;;;;;;33.90;57.40;;;;;;5093819;28;19988;-62
2023/07/22 09:34:25;;;;;;;;;;;33.60;56.50;;;;;;5093993;28;19989;-61
2023/07/22 09:36:55;;;;;;;;;;;33.10;56.80;;;;;;5093710;28;20564;-63
2023/07/22 09:39:21;;;;;;;;;;;32.80;57.30;;;;;;5093780;28;20443;-63
2023/07/22 09:41:47;;;;;;;;;;;32.60;57.90;;;;;;5093856;28;19985;-64
2023/07/22 09:44:13;;;;;;;;;;;32.50;57.90;;;;;;5093485;28;19981;-62
2023/07/22 09:46:38;;;;;;;;;;;32.50;58.30;;;;;;5093428;28;20069;-62
2023/07/22 09:49:05;;;;;;;;;;;32.20;59.70;;;;;;5093575;28;20005;-63
2023/07/22 09:51:40;;;;;;;;;;;32.20;60.80;;;;;;5093778;28;20008;-63
2023/07/22 09:54:06;;;;;;;;;;;32.30;61.10;;;;;;5093686;28;19987;-63
2023/07/22 09:56:33;;;;;;;;;;;32.20;60.50;;;;;;5093789;28;19993;-64
2023/07/22 09:58:59;;;;;;;;;;;32.50;59.50;;;;;;5093489;28;20019;-62
2023/07/22 10:01:25;;;;;;;;;;;32.80;60.80;;;;;;5093495;28;20435;-62
2023/07/22 10:03:56;;;;;;;;;;;33.00;60.80;;;;;;5093453;28;19981;-62
2023/07/22 10:06:27;;;;;;;;;;;32.80;58.60;;;;;;5093476;28;20022;-63
2023/07/22 10:08:55;;;;;;;;;;;32.80;61.50;;;;;;5093366;28;19993;-63
2023/07/22 10:11:22;;;;;;;;;;;33.40;56.90;;;;;;5092085;28;20335;-61
2023/07/22 10:13:48;;;;;;;;;;;33.70;59.70;;;;;;5093265;28;20071;-62
2023/07/22 10:16:13;;;;;;;;;;;33.60;57.80;;;;;;5093309;28;20016;-64
2023/07/22 10:18:41;;;;;;;;;;;33.60;56.70;;;;;;5093230;28;19996;-65
2023/07/22 10:21:07;;;;;;;;;;;33.40;56.40;;;;;;5093341;28;20428;-63
2023/07/22 10:23:33;;;;;;;;;;;33.50;56.10;;;;;;5093590;28;19985;-64
2023/07/22 10:25:59;;;;;;;;;;;33.60;57.20;;;;;;5093374;28;20475;-63
2023/07/22 10:28:25;;;;;;;;;;;34.00;58.30;;;;;;5093234;28;19992;-62
2023/07/22 10:30:54;;;;;;;;;;;35.00;61.00;;;;;;5093995;28;20016;-63
2023/07/22 10:33:19;;;;;;;;;;;36.00;58.70;;;;;;5096872;28;19985;-63
2023/07/22 10:36:02;;;;;;;;;;;36.50;55.00;;;;;;5097269;28;19990;-63
2023/07/22 10:38:28;;;;;;;;;;;36.90;52.50;;;;;;5096916;28;19988;-64
2023/07/22 10:40:55;;;;;;;;;;;37.00;53.20;;;;;;5096529;28;19981;-62
2023/07/22 10:43:25;;;;;;;;;;;36.20;50.60;;;;;;5096876;28;19985;-62
2023/07/22 10:45:51;;;;;;;;;;;35.70;52.40;;;;;;5096669;28;20444;-62
2023/07/22 10:48:17;;;;;;;;;;;36.10;53.50;;;;;;5096605;28;19982;-63
2023/07/22 10:50:47;;;;;;;;;;;36.70;53.20;;;;;;5096582;28;20463;-63
2023/07/22 10:53:13;;;;;;;;;;;36.80;51.20;;;;;;5096687;28;20007;-64
2023/07/22 10:55:57;;;;;;;;;;;36.80;51.60;;;;;;5096302;28;19985;-62
2023/07/22 10:58:23;;;;;;;;;;;36.90;49.80;;;;;;5096510;28;20102;-62
2023/07/22 11:00:49;;;;;;;;;;;36.60;50.10;;;;;;5096380;28;19994;-62
2023/07/22 11:03:15;;;;;;;;;;;36.30;50.60;;;;;;5096650;28;19985;-61
2023/07/22 11:05:51;;;;;;;;;;;35.90;51.20;;;;;;5096335;28;19981;-62
2023/07/22 11:08:16;;;;;;;;;;;35.50;52.20;;;;;;5096215;28;20042;-61
2023/07/22 11:10:57;;;;;;;;;;;35.50;53.10;;;;;;5096300;28;20013;-62
2023/07/22 11:13:37;;;;;;;;;;;35.60;53.30;;;;;;5096169;28;19988;-62
2023/07/22 11:16:02;;;;;;;;;;;36.10;53.00;;;;;;5096176;28;20034;-63
2023/07/22 11:18:40;;;;;;;;;;;36.50;52.80;;;;;;5096149;28;19981;-64
2023/07/22 11:21:12;;;;;;;;;;;37.00;51.90;;;;;;5096310;28;20022;-61
2023/07/22 11:23:38;;;;;;;;;;;37.40;49.00;;;;;;5095894;28;19981;-61
2023/07/22 11:26:04;;;;;;;;;;;37.70;47.10;;;;;;5095938;28;20328;-63
2023/07/22 11:28:30;;;;;;;;;;;38.00;50.70;;;;;;5095940;28;20088;-61
2023/07/22 11:30:56;;;;;;;;;;;37.60;49.60;;;;;;5095917;28;20059;-64
2023/07/22 11:33:21;;;;;;;;;;;37.00;49.20;;;;;;5095703;28;20455;-64
2023/07/22 11:35:47;;;;;;;;;;;36.30;47.70;;;;;;5095909;28;20030;-61
2023/07/22 11:38:13;;;;;;;;;;;35.90;49.30;;;;;;5096003;28;20450;-63
2023/07/22 11:40:38;;;;;;;;;;;35.50;50.10;;;;;;5095664;28;20347;-64
2023/07/22 11:43:04;;;;;;;;;;;35.40;49.50;;;;;;5095167;28;19989;-62
2023/07/22 11:45:30;;;;;;;;;;;35.40;52.00;;;;;;5095395;28;20565;-63
2023/07/22 11:47:56;;;;;;;;;;;35.60;52.90;;;;;;5095594;28;20337;-62
2023/07/22 11:50:32;;;;;;;;;;;36.10;51.90;;;;;;5095339;28;20048;-62
2023/07/22 11:52:58;;;;;;;;;;;36.10;51.00;;;;;;5095489;28;20512;-64
2023/07/22 11:55:26;;;;;;;;;;;36.60;52.40;;;;;;5095140;28;19981;-62
2023/07/22 11:57:53;;;;;;;;;;;37.00;52.90;;;;;;5095547;28;20000;-64
2023/07/22 12:00:18;;;;;;;;;;;36.70;49.80;;;;;;5095397;28;19982;-63
2023/07/22 12:02:44;;;;;;;;;;;36.30;50.00;;;;;;5095180;28;19989;-63
2023/07/22 12:05:09;;;;;;;;;;;35.90;49.50;;;;;;5095115;28;19985;-61
2023/07/22 12:07:36;;;;;;;;;;;35.60;51.90;;;;;;5094945;28;20382;-61
2023/07/22 12:10:06;;;;;;;;;;;35.30;50.60;;;;;;5095038;28;20031;-61
2023/07/22 12:12:45;;;;;;;;;;;35.30;52.90;;;;;;5095014;28;19985;-62
2023/07/22 12:15:17;;;;;;;;;;;35.90;52.80;;;;;;5095061;28;20026;-63
2023/07/22 12:17:53;;;;;;;;;;;36.30;51.80;;;;;;5095180;28;20035;-62
2023/07/22 12:20:19;;;;;;;;;;;36.60;51.40;;;;;;5094980;28;20431;-62
2023/07/22 12:22:44;;;;;;;;;;;36.90;49.40;;;;;;5094636;28;19988;-62
2023/07/22 12:25:10;;;;;;;;;;;36.40;49.80;;;;;;5094717;28;20035;-64
2023/07/22 12:27:36;;;;;;;;;;;35.90;51.20;;;;;;5094913;28;19992;-62
2023/07/22 12:30:02;;;;;;;;;;;35.80;50.60;;;;;;5094679;28;20009;-62
2023/07/22 12:32:28;;;;;;;;;;;35.50;50.50;;;;;;5094585;28;20513;-63
2023/07/22 12:34:54;;;;;;;;;;;35.20;50.30;;;;;;5094758;28;19981;-64
2023/07/22 12:37:19;;;;;;;;;;;35.10;50.10;;;;;;5094429;28;19981;-62
2023/07/22 12:39:45;;;;;;;;;;;35.10;50.80;;;;;;5094452;28;20451;-64
2023/07/22 12:42:10;;;;;;;;;;;35.10;52.70;;;;;;5094778;28;20355;-62
2023/07/22 12:44:36;;;;;;;;;;;35.50;53.80;;;;;;5094179;28;19985;-61
2023/07/22 12:47:02;;;;;;;;;;;36.00;51.30;;;;;;5094338;28;20015;-61
2023/07/22 12:49:27;;;;;;;;;;;36.20;49.00;;;;;;5094306;28;20005;-63
2023/07/22 12:51:53;;;;;;;;;;;36.40;53.00;;;;;;5094242;28;19981;-63
2023/07/22 12:54:18;;;;;;;;;;;36.80;50.40;;;;;;5093992;28;19981;-62
2023/07/22 12:56:44;;;;;;;;;;;36.90;49.40;;;;;;5094485;28;19989;-62
2023/07/22 12:59:10;;;;;;;;;;;36.60;48.60;;;;;;5094323;28;20452;-62
2023/07/22 13:01:39;;;;;;;;;;;36.30;49.80;;;;;;5094158;28;20024;-63
2023/07/22 13:04:04;;;;;;;;;;;36.00;50.80;;;;;;5094101;28;20080;-62
2023/07/22 13:06:30;;;;;;;;;;;35.50;50.60;;;;;;5093971;28;20029;-62
2023/07/22 13:08:56;;;;;;;;;;;35.30;52.00;;;;;;5094009;28;19985;-64
2023/07/22 13:11:21;;;;;;;;;;;35.10;52.60;;;;;;5094284;28;19991;-61
2023/07/22 13:13:47;;;;;;;;;;;35.00;52.20;;;;;;5094119;28;20072;-64
2023/07/22 13:16:12;;;;;;;;;;;35.00;52.30;;;;;;5094080;28;20027;-63
2023/07/22 13:18:38;;;;;;;;;;;35.30;52.80;;;;;;5093889;28;19992;-62
2023/07/22 13:21:03;;;;;;;;;;;35.70;52.00;;;;;;5093980;28;20090;-62
2023/07/22 13:23:29;;;;;;;;;;;36.20;52.00;;;;;;5093901;28;19992;-62
2023/07/22 13:25:54;;;;;;;;;;;36.00;51.60;;;;;;5093817;28;20071;-61
2023/07/22 13:28:20;;;;;;;;;;;35.40;50.60;;;;;;5093858;28;19981;-63
2023/07/22 13:30:46;;;;;;;;;;;34.70;52.70;;;;;;5093740;28;20028;-64
2023/07/22 13:33:11;;;;;;;;;;;34.60;52.60;;;;;;5093845;28;20428;-62
2023/07/22 13:35:37;;;;;;;;;;;34.50;52.80;;;;;;5093526;28;20329;-64
2023/07/22 13:38:02;;;;;;;;;;;34.30;53.20;;;;;;5093733;28;20008;-62
2023/07/22 13:40:28;;;;;;;;;;;34.20;53.20;;;;;;5093683;28;19985;-61
2023/07/22 13:42:53;;;;;;;;;;;34.00;54.40;;;;;;5093946;28;19986;-63
2023/07/22 13:45:19;;;;;;;;;;;34.00;54.40;;;;;;5093624;28;20017;-62
2023/07/22 13:47:44;;;;;;;;;;;34.00;54.30;;;;;;5093679;28;19996;-64
2023/07/22 13:50:10;;;;;;;;;;;34.10;54.50;;;;;;5093317;28;20004;-62
2023/07/22 13:52:35;;;;;;;;;;;34.30;54.80;;;;;;5093928;28;20106;-61
2023/07/22 13:55:01;;;;;;;;;;;34.50;54.70;;;;;;5093621;28;19985;-62
2023/07/22 13:57:27;;;;;;;;;;;34.90;53.80;;;;;;5093534;28;20001;-61
2023/07/22 13:59:53;;;;;;;;;;;34.90;52.70;;;;;;5093538;28;19985;-63
2023/07/22 14:02:19;;;;;;;;;;;34.70;52.50;;;;;;5093619;28;19981;-62
2023/07/22 14:04:44;;;;;;;;;;;34.60;52.40;;;;;;5093642;28;20016;-63
2023/07/22 14:07:10;;;;;;;;;;;34.40;53.00;;;;;;5096514;28;19988;-63
2023/07/22 14:09:35;;;;;;;;;;;34.00;53.40;;;;;;5097407;28;20367;-63
2023/07/22 14:12:01;;;;;;;;;;;33.50;54.80;;;;;;5097462;28;20068;-64